Time;durP1;ratioP1;P1;durP2;ratioP2;P2;SDS_P1;SDS_P2;PMS_P1;PMS_P2;Temp;Humidity;BMP_temperature;BMP_pressure;BME280_temperature;BME280_humidity;BME280_pressure;Samples;Min_cycle;Max_cycle;Signal;HPM_P1;HPM_P2
2022/09/10 00:00:33;;;;;;;2.50;0.50;;;;;;;10.75;100.00;100131.91;1724823;80;21560;-47
2022/09/10 00:03:02;;;;;;;1.12;0.60;;;;;;;10.71;100.00;100135.69;1723042;80;21033;-47
2022/09/10 00:05:28;;;;;;;2.40;0.80;;;;;;;10.68;100.00;100137.16;1720227;80;21118;-45
2022/09/10 00:07:55;;;;;;;0.90;0.50;;;;;;;10.67;100.00;100135.41;1729256;80;21251;-46
2022/09/10 00:10:21;;;;;;;3.83;0.80;;;;;;;10.67;100.00;100144.36;1730550;80;21108;-46
2022/09/10 00:12:50;;;;;;;1.20;0.50;;;;;;;10.67;100.00;100135.41;1721749;80;21042;-46
2022/09/10 00:15:19;;;;;;;0.60;0.50;;;;;;;10.66;100.00;100132.30;1724648;80;21077;-45
2022/09/10 00:17:45;;;;;;;1.52;0.60;;;;;;;10.67;100.00;100134.05;1730267;80;21093;-45
2022/09/10 00:20:12;;;;;;;0.80;0.70;;;;;;;10.70;100.00;100131.25;1721444;80;22729;-48
2022/09/10 00:22:39;;;;;;;1.98;0.60;;;;;;;10.69;100.00;100132.19;1661770;83;21542;-45
2022/09/10 00:25:07;;;;;;;1.70;0.60;;;;;;;10.69;100.00;100128.14;1720857;80;21058;-45
2022/09/10 00:27:35;;;;;;;1.45;0.60;;;;;;;10.63;100.00;100132.83;1727562;80;21074;-45
2022/09/10 00:30:02;;;;;;;5.35;0.60;;;;;;;10.57;100.00;100132.22;1728293;80;21038;-45
2022/09/10 00:32:29;;;;;;;4.87;0.70;;;;;;;10.51;100.00;100122.59;1720994;80;21255;-45
2022/09/10 00:34:56;;;;;;;0.80;0.60;;;;;;;10.47;100.00;100124.12;1717246;81;21061;-45
2022/09/10 00:37:23;;;;;;;0.90;0.50;;;;;;;10.43;100.00;100122.05;1716724;81;21525;-46
2022/09/10 00:39:49;;;;;;;1.17;0.82;;;;;;;10.40;100.00;100110.05;1723503;81;21058;-46
2022/09/10 00:42:16;;;;;;;1.07;0.60;;;;;;;10.40;100.00;100119.47;1712817;81;21112;-45
2022/09/10 00:44:55;;;;;;;0.72;0.50;;;;;;;10.41;100.00;100117.19;1717656;81;22539;-45
2022/09/10 00:47:32;;;;;;;1.57;0.50;;;;;;;10.43;100.00;100115.31;1718082;81;21120;-46
2022/09/10 00:50:19;;;;;;;4.50;0.60;;;;;;;10.46;100.00;100111.13;1713816;81;21083;-45
2022/09/10 00:52:46;;;;;;;0.70;0.40;;;;;;;10.49;100.00;100108.79;1716076;81;21081;-45
2022/09/10 00:55:12;;;;;;;0.82;0.50;;;;;;;10.51;100.00;100115.88;1720865;81;21027;-46
2022/09/10 00:57:39;;;;;;;0.53;0.42;;;;;;;10.52;100.00;100117.63;1711700;81;21171;-45
2022/09/10 01:00:10;;;;;;;0.80;0.57;;;;;;;10.49;100.00;100110.14;1720662;81;21064;-45
2022/09/10 01:02:37;;;;;;;3.55;0.50;;;;;;;10.47;100.00;100104.81;1717966;81;21441;-45
2022/09/10 01:05:05;;;;;;;0.60;0.50;;;;;;;10.45;100.00;100106.72;1722942;81;21102;-45
2022/09/10 01:07:32;;;;;;;0.72;0.47;;;;;;;10.44;100.00;100101.39;1718425;81;21065;-45
2022/09/10 01:10:00;;;;;;;0.88;0.50;;;;;;;10.44;100.00;100106.78;1720658;81;21125;-45
2022/09/10 01:12:51;;;;;;;0.68;0.40;;;;;;;10.42;100.00;100104.14;1688369;81;21540;-45
2022/09/10 01:15:35;;;;;;;1.60;0.60;;;;;;;10.41;100.00;100095.66;1703519;81;21117;-45
2022/09/10 01:18:13;;;;;;;0.90;0.50;;;;;;;10.42;100.00;100104.14;1717921;81;21061;-45
2022/09/10 01:21:00;;;;;;;2.72;0.40;;;;;;;10.43;100.00;100107.72;1712772;81;21128;-43
2022/09/10 01:24:12;;;;;;;0.78;0.50;;;;;;;10.41;100.00;100102.86;1719522;81;21137;-44
2022/09/10 01:27:02;;;;;;;0.50;0.40;;;;;;;10.42;100.00;100115.37;1717964;81;21060;-45
2022/09/10 01:29:40;;;;;;;0.70;0.60;;;;;;;10.43;100.00;100113.97;1716202;81;21053;-43
2022/09/10 01:32:14;;;;;;;1.42;0.50;;;;;;;10.44;100.00;100109.00;1720403;81;21036;-44
2022/09/10 01:35:03;;;;;;;1.35;0.62;;;;;;;10.46;100.00;100108.44;1723649;80;21042;-43
2022/09/10 01:37:30;;;;;;;5.17;0.60;;;;;;;10.45;100.00;100105.37;1721872;80;21051;-43
2022/09/10 01:39:58;;;;;;;1.07;0.37;;;;;;;10.42;100.00;100102.80;1730793;80;21008;-42
2022/09/10 01:42:26;;;;;;;0.70;0.40;;;;;;;10.41;100.00;100101.05;1728286;80;21511;-45
2022/09/10 01:44:55;;;;;;;0.70;0.40;;;;;;;10.40;100.00;100103.80;1726357;80;21466;-43
2022/09/10 01:47:55;;;;;;;0.90;0.40;;;;;;;10.41;100.00;100098.35;1723609;80;21418;-43
2022/09/10 01:50:42;;;;;;;0.65;0.40;;;;;;;10.43;100.00;100099.17;1721645;80;21866;-44
2022/09/10 01:53:40;;;;;;;1.25;0.50;;;;;;;10.45;100.00;100100.45;1721645;80;21047;-44
2022/09/10 01:56:34;;;;;;;0.45;0.30;;;;;;;10.46;100.00;100096.33;1721802;80;21105;-44
2022/09/10 01:59:20;;;;;;;1.77;0.40;;;;;;;10.48;100.00;100093.58;1726140;80;20975;-46
2022/09/10 02:01:49;;;;;;;2.62;0.37;;;;;;;10.49;100.00;100084.57;1726853;80;21124;-45
2022/09/10 02:04:16;;;;;;;1.37;0.40;;;;;;;10.49;100.00;100079.19;1725802;80;21093;-44
2022/09/10 02:06:46;;;;;;;0.75;0.50;;;;;;;10.47;100.00;100079.25;1722512;80;21504;-44
2022/09/10 02:09:13;;;;;;;0.57;0.37;;;;;;;10.47;100.00;100070.30;1732396;80;21077;-45
2022/09/10 02:11:46;;;;;;;0.68;0.40;;;;;;;10.47;100.00;100071.17;1723621;80;21057;-43
2022/09/10 02:14:15;;;;;;;0.47;0.30;;;;;;;10.46;100.00;100069.42;1721869;80;21052;-44
2022/09/10 02:17:00;;;;;;;0.40;0.40;;;;;;;10.46;100.00;100057.81;1725148;80;21218;-45
2022/09/10 02:19:27;;;;;;;0.70;0.40;;;;;;;10.45;100.00;100056.93;1666247;84;21067;-45
2022/09/10 02:21:55;;;;;;;0.50;0.40;;;;;;;10.45;100.00;100060.97;1724817;80;21097;-43
2022/09/10 02:24:21;;;;;;;1.90;0.40;;;;;;;10.44;100.00;100058.34;1698824;81;21088;-43
2022/09/10 02:26:48;;;;;;;1.25;0.30;;;;;;;10.42;100.00;100053.02;1725422;80;21108;-43
2022/09/10 02:29:15;;;;;;;0.60;0.30;;;;;;;10.41;100.00;100048.56;1725074;80;21127;-44
2022/09/10 02:31:43;;;;;;;0.40;0.30;;;;;;;10.42;100.00;100053.48;1725470;80;21030;-44
2022/09/10 02:34:11;;;;;;;0.62;0.40;;;;;;;10.41;100.00;100056.64;1726876;80;20973;-44
2022/09/10 02:36:39;;;;;;;1.45;0.20;;;;;;;10.38;100.00;100050.03;1725100;80;20934;-44
2022/09/10 02:39:06;;;;;;;0.30;0.30;;;;;;;10.36;100.00;100042.98;1728851;80;21543;-43
2022/09/10 02:41:34;;;;;;;1.35;0.30;;;;;;;10.35;100.00;100038.08;1728560;80;21524;-43
2022/09/10 02:44:01;;;;;;;0.45;0.20;;;;;;;10.35;100.00;100035.86;1727243;80;20906;-43
2022/09/10 02:46:28;;;;;;;0.40;0.30;;;;;;;10.34;100.00;100036.33;1724781;80;21019;-45
2022/09/10 02:48:55;;;;;;;0.47;0.40;;;;;;;10.36;100.00;100036.27;1724799;80;21406;-45
2022/09/10 02:51:22;;;;;;;0.75;0.30;;;;;;;10.37;100.00;100024.56;1726502;80;21018;-45
2022/09/10 02:53:49;;;;;;;1.92;0.30;;;;;;;10.38;100.00;100027.16;1727401;80;22497;-45
2022/09/10 02:56:18;;;;;;;0.47;0.30;;;;;;;10.40;100.00;100015.87;1737262;80;20923;-44
2022/09/10 02:58:44;;;;;;;0.40;0.40;;;;;;;10.41;100.00;100024.81;1721915;80;21101;-43
2022/09/10 03:01:17;;;;;;;0.30;0.20;;;;;;;10.41;100.00;100017.63;1727897;80;21191;-45
2022/09/10 03:03:57;;;;;;;0.40;0.20;;;;;;;10.42;100.00;100013.99;1726002;80;21056;-44
2022/09/10 03:06:22;;;;;;;0.80;0.20;;;;;;;10.43;100.00;100009.48;1725331;80;21166;-44
2022/09/10 03:08:48;;;;;;;2.50;0.30;;;;;;;10.43;100.00;100011.71;1722817;80;21050;-44
2022/09/10 03:11:15;;;;;;;2.37;0.30;;;;;;;10.43;100.00;100009.02;1729280;80;21682;-43
2022/09/10 03:13:44;;;;;;;0.40;0.20;;;;;;;10.45;100.00;100009.84;1730910;80;21105;-45
2022/09/10 03:16:12;;;;;;;0.35;0.20;;;;;;;10.46;100.00;100010.20;1725354;80;21113;-44
2022/09/10 03:18:40;;;;;;;0.50;0.30;;;;;;;10.49;100.00;100008.73;1728428;80;21138;-43
2022/09/10 03:21:08;;;;;;;0.30;0.23;;;;;;;10.51;100.00;100011.38;1724873;80;21082;-43
2022/09/10 03:23:36;;;;;;;0.20;0.20;;;;;;;10.51;100.00;100015.41;1725366;80;21512;-43
2022/09/10 03:26:05;;;;;;;0.33;0.20;;;;;;;10.50;100.00;100009.62;1730876;80;21729;-44
2022/09/10 03:28:32;;;;;;;0.57;0.20;;;;;;;10.49;100.00;100014.13;1728566;80;21485;-43
2022/09/10 03:31:00;;;;;;;0.20;0.20;;;;;;;10.49;100.00;100013.25;1725203;80;21512;-43
2022/09/10 03:33:27;;;;;;;0.90;0.20;;;;;;;10.51;100.00;100017.63;1730844;80;21086;-45
2022/09/10 03:35:54;;;;;;;0.88;0.42;;;;;;;10.53;100.00;100009.50;1710013;81;21069;-44
2022/09/10 03:38:22;;;;;;;0.30;0.30;;;;;;;10.55;100.00;100012.50;1712919;81;21069;-43
2022/09/10 03:40:50;;;;;;;0.23;0.20;;;;;;;10.57;100.00;100006.59;1715684;81;21107;-43
2022/09/10 03:43:17;;;;;;;0.35;0.20;;;;;;;10.58;100.00;100005.65;1657243;84;21150;-45
2022/09/10 03:45:47;;;;;;;0.20;0.20;;;;;;;10.61;100.00;100007.34;1675454;83;21085;-44
2022/09/10 03:48:15;;;;;;;0.28;0.15;;;;;;;10.61;100.00;100004.17;1681013;83;21532;-43
2022/09/10 03:50:43;;;;;;;0.88;0.20;;;;;;;10.62;100.00;100001.02;1636230;84;21520;-44
2022/09/10 03:53:11;;;;;;;0.20;0.20;;;;;;;10.62;100.00;99995.63;1708797;81;21031;-43
2022/09/10 03:55:37;;;;;;;0.20;0.20;;;;;;;10.61;100.00;99986.68;1710251;81;21111;-45
2022/09/10 03:58:05;;;;;;;0.20;0.20;;;;;;;10.63;100.00;99993.82;1710064;81;21065;-43
2022/09/10 04:00:32;;;;;;;1.40;0.20;;;;;;;10.63;100.00;99996.04;1711532;81;21310;-44
2022/09/10 04:03:00;;;;;;;0.20;0.15;;;;;;;10.65;100.00;99989.22;1717987;81;21015;-44
2022/09/10 04:05:27;;;;;;;0.35;0.20;;;;;;;10.68;100.00;99987.74;1711691;81;20986;-44
2022/09/10 04:07:57;;;;;;;0.28;0.20;;;;;;;10.71;100.00;99988.97;1714253;81;21097;-44
2022/09/10 04:10:23;;;;;;;0.98;0.15;;;;;;;10.72;100.00;99987.52;1716353;81;21320;-43
2022/09/10 04:12:55;;;;;;;0.30;0.20;;;;;;;10.73;100.00;99985.23;1707905;81;21068;-44
2022/09/10 04:15:22;;;;;;;0.10;0.10;;;;;;;10.74;100.00;99995.06;1718849;81;20996;-44
2022/09/10 04:17:50;;;;;;;0.20;0.13;;;;;;;10.76;100.00;99996.34;1719365;81;21113;-45
2022/09/10 04:20:21;;;;;;;0.20;0.10;;;;;;;10.77;100.00;99995.41;1713200;81;21154;-43
2022/09/10 04:22:48;;;;;;;0.20;0.10;;;;;;;10.78;100.00;99990.43;1714860;81;21137;-46
2022/09/10 04:25:15;;;;;;;0.60;0.10;;;;;;;10.80;100.00;99979.13;1710654;81;21109;-44
2022/09/10 04:27:41;;;;;;;0.20;0.10;;;;;;;10.82;100.00;99978.56;1710807;81;21072;-46
2022/09/10 04:30:10;;;;;;;0.20;0.20;;;;;;;10.82;100.00;99978.09;1713572;81;21627;-44
2022/09/10 04:32:36;;;;;;;1.45;0.10;;;;;;;10.81;100.00;99977.68;1715161;81;21101;-44
2022/09/10 04:35:05;;;;;;;0.20;0.20;;;;;;;10.84;100.00;99974.86;1714799;80;21264;-45
2022/09/10 04:37:33;;;;;;;0.33;0.17;;;;;;;10.86;100.00;99966.72;1704470;81;21074;-44
2022/09/10 04:40:00;;;;;;;0.10;0.10;;;;;;;10.86;100.00;99972.98;1718194;81;21066;-45
2022/09/10 04:42:27;;;;;;;0.17;0.17;;;;;;;10.87;100.00;99961.27;1724921;81;21046;-44
2022/09/10 04:44:55;;;;;;;0.20;0.10;;;;;;;10.89;100.00;99963.86;1716647;81;21114;-44
2022/09/10 04:47:22;;;;;;;0.20;0.10;;;;;;;10.89;100.00;99954.44;1713851;81;21133;-45
2022/09/10 04:49:48;;;;;;;1.65;0.10;;;;;;;10.92;100.00;99966.42;1715767;81;21566;-45
2022/09/10 04:52:16;;;;;;;0.13;0.13;;;;;;;10.91;100.00;99965.55;1710446;81;21092;-44
2022/09/10 04:54:43;;;;;;;0.25;0.10;;;;;;;10.89;100.00;99958.48;1713369;81;21050;-44
2022/09/10 04:57:10;;;;;;;0.85;0.20;;;;;;;10.89;100.00;99969.25;1719033;81;21917;-45
2022/09/10 04:59:37;;;;;;;0.20;0.20;;;;;;;10.89;100.00;99967.44;1710854;81;21515;-46
2022/09/10 05:02:05;;;;;;;0.37;0.17;;;;;;;10.90;100.00;99966.49;1709130;81;21706;-44
2022/09/10 05:04:33;;;;;;;0.20;0.13;;;;;;;10.88;100.00;99964.84;1707658;81;21070;-44
2022/09/10 05:07:00;;;;;;;2.47;0.20;;;;;;;10.84;100.00;99965.91;1713078;81;21081;-46
2022/09/10 05:09:33;;;;;;;0.10;0.10;;;;;;;10.82;100.00;99961.05;1708559;81;21538;-45
2022/09/10 05:12:02;;;;;;;0.20;0.20;;;;;;;10.83;100.00;99961.46;1709223;81;28340;-44
2022/09/10 05:14:29;;;;;;;1.57;0.13;;;;;;;10.84;100.00;99960.05;1714021;81;21649;-45
2022/09/10 05:16:56;;;;;;;0.17;0.10;;;;;;;10.84;100.00;99956.48;1716533;81;21060;-44
2022/09/10 05:19:22;;;;;;;0.20;0.20;;;;;;;10.82;100.00;99959.70;1712539;81;21261;-44
2022/09/10 05:21:50;;;;;;;0.10;0.10;;;;;;;10.78;100.00;99952.73;1718230;81;22144;-45
2022/09/10 05:24:16;;;;;;;0.20;0.10;;;;;;;10.76;100.00;99954.62;1725796;81;20923;-44
2022/09/10 05:26:43;;;;;;;0.20;0.20;;;;;;;10.76;100.00;99954.14;1718775;81;21105;-45
2022/09/10 05:29:12;;;;;;;0.17;0.10;;;;;;;10.78;100.00;99951.39;1714119;81;21583;-44
2022/09/10 05:31:40;;;;;;;0.10;0.10;;;;;;;10.77;100.00;99960.41;1719753;81;21521;-45
2022/09/10 05:34:08;;;;;;;0.20;0.10;;;;;;;10.76;100.00;99947.88;1708459;81;21141;-45
2022/09/10 05:36:35;;;;;;;0.10;0.10;;;;;;;10.75;100.00;99960.94;1724153;80;21105;-44
2022/09/10 05:39:02;;;;;;;0.65;0.20;;;;;;;10.75;100.00;99958.25;1728413;80;21088;-44
2022/09/10 05:41:31;;;;;;;0.10;0.10;;;;;;;10.73;100.00;99958.78;1729878;80;21123;-46
2022/09/10 05:43:59;;;;;;;0.20;0.17;;;;;;;10.71;100.00;99963.39;1723468;80;21148;-44
2022/09/10 05:46:27;;;;;;;0.10;0.10;;;;;;;10.72;100.00;99962.45;1722050;80;21483;-45
2022/09/10 05:48:56;;;;;;;0.20;0.10;;;;;;;10.72;100.00;99966.48;1731626;80;20903;-44
2022/09/10 05:51:28;;;;;;;0.10;0.10;;;;;;;10.71;100.00;99960.22;1731405;80;20937;-46
2022/09/10 05:53:53;;;;;;;0.13;0.10;;;;;;;10.71;100.00;99959.34;1673496;82;20902;-44
2022/09/10 05:56:20;;;;;;;0.28;0.20;;;;;;;10.71;100.00;99961.57;1729224;80;20938;-46
2022/09/10 05:58:46;;;;;;;0.88;0.10;;;;;;;10.71;100.00;99960.70;1725409;80;21128;-47
2022/09/10 06:01:14;;;;;;;0.20;0.10;;;;;;;10.72;100.00;99966.48;1723964;80;21148;-46
2022/09/10 06:03:41;;;;;;;0.10;0.10;;;;;;;10.72;100.00;99965.14;1725866;80;21090;-44
2022/09/10 06:06:08;;;;;;;0.45;0.10;;;;;;;10.70;100.00;99962.98;1722965;80;21526;-44
2022/09/10 06:08:38;;;;;;;0.20;0.20;;;;;;;10.69;100.00;99969.30;1719909;80;21585;-47
2022/09/10 06:11:08;;;;;;;0.08;0.08;;;;;;;10.67;100.00;99974.75;1721547;80;21114;-45
2022/09/10 06:13:38;;;;;;;0.10;0.10;;;;;;;10.67;100.00;99968.49;1722635;80;21667;-44
2022/09/10 06:16:06;;;;;;;0.10;0.10;;;;;;;10.67;100.00;99971.18;1723294;80;21680;-44
2022/09/10 06:18:33;;;;;;;0.13;0.10;;;;;;;10.67;100.00;99964.45;1720616;80;21403;-45
2022/09/10 06:21:13;;;;;;;0.10;0.10;;;;;;;10.67;100.00;99977.44;1724201;80;21062;-45
2022/09/10 06:23:42;;;;;;;0.20;0.20;;;;;;;10.70;100.00;99973.75;1725036;80;21548;-44
2022/09/10 06:26:15;;;;;;;0.20;0.10;;;;;;;10.71;100.00;99971.47;1724176;80;21085;-43
2022/09/10 06:28:43;;;;;;;0.20;0.20;;;;;;;10.69;100.00;99973.34;1723884;80;21066;-44
2022/09/10 06:31:15;;;;;;;0.25;0.20;;;;;;;10.68;100.00;99969.77;1726349;80;21096;-45
2022/09/10 06:33:39;;;;;;;0.20;0.13;;;;;;;10.69;100.00;99967.95;1724557;80;21105;-45
2022/09/10 06:36:06;;;;;;;0.10;0.10;;;;;;;10.69;100.00;99964.80;1725022;80;21778;-45
2022/09/10 06:38:33;;;;;;;0.33;0.20;;;;;;;10.70;100.00;99961.16;1722204;80;21033;-45
2022/09/10 06:41:03;;;;;;;0.50;0.20;;;;;;;10.71;100.00;99962.92;1727346;80;20922;-45
2022/09/10 06:43:35;;;;;;;0.20;0.20;;;;;;;10.71;100.00;99970.99;1725178;80;21112;-44
2022/09/10 06:46:12;;;;;;;0.13;0.10;;;;;;;10.67;100.00;99955.91;1723436;80;21101;-45
2022/09/10 06:48:46;;;;;;;0.20;0.10;;;;;;;10.65;100.00;99954.22;1722262;80;21530;-45
2022/09/10 06:51:14;;;;;;;0.20;0.17;;;;;;;10.63;100.00;99952.47;1723017;80;21561;-46
2022/09/10 06:53:43;;;;;;;0.70;0.20;;;;;;;10.65;100.00;99959.13;1722040;80;21115;-47
2022/09/10 06:56:12;;;;;;;0.28;0.20;;;;;;;10.61;100.00;99950.34;1732262;80;21101;-46
2022/09/10 06:58:39;;;;;;;0.15;0.10;;;;;;;10.59;100.00;99955.38;1726848;80;21110;-45
2022/09/10 07:01:19;;;;;;;0.10;0.10;;;;;;;10.60;100.00;99951.28;1722130;80;22197;-46
2022/09/10 07:03:56;;;;;;;0.20;0.17;;;;;;;10.60;100.00;99959.83;1721956;80;21865;-46
2022/09/10 07:06:25;;;;;;;0.30;0.20;;;;;;;10.63;100.00;99952.97;1723170;80;22438;-47
2022/09/10 07:08:55;;;;;;;0.30;0.20;;;;;;;10.66;100.00;99953.28;1721931;80;21509;-46
2022/09/10 07:11:22;;;;;;;0.30;0.28;;;;;;;10.69;100.00;99960.76;1723216;80;21730;-46
2022/09/10 07:13:51;;;;;;;0.28;0.28;;;;;;;10.68;100.00;99958.13;1727164;80;21111;-46
2022/09/10 07:16:23;;;;;;;0.20;0.20;;;;;;;10.68;100.00;99966.20;1727859;80;21410;-46
2022/09/10 07:18:50;;;;;;;0.30;0.30;;;;;;;10.66;100.00;99962.23;1725939;80;21687;-48
2022/09/10 07:21:18;;;;;;;0.40;0.20;;;;;;;10.63;100.00;99963.73;1669481;83;21303;-47
2022/09/10 07:23:50;;;;;;;0.20;0.20;;;;;;;10.60;100.00;99958.02;1701115;80;21120;-45
2022/09/10 07:26:20;;;;;;;0.25;0.20;;;;;;;10.61;100.00;99957.07;1721624;80;21383;-47
2022/09/10 07:28:50;;;;;;;0.60;0.20;;;;;;;10.60;100.00;99955.31;1723484;80;21054;-45
2022/09/10 07:31:28;;;;;;;0.82;0.20;;;;;;;10.60;100.00;99970.13;1720065;80;21324;-46
2022/09/10 07:33:56;;;;;;;0.20;0.20;;;;;;;10.60;100.00;99960.70;1727444;80;21472;-46
2022/09/10 07:36:23;;;;;;;0.40;0.20;;;;;;;10.61;100.00;99955.72;1726209;80;21090;-45
2022/09/10 07:38:53;;;;;;;0.25;0.20;;;;;;;10.59;100.00;99958.95;1730365;80;21136;-45
2022/09/10 07:41:20;;;;;;;0.20;0.20;;;;;;;10.57;100.00;99958.14;1722832;80;21053;-47
2022/09/10 07:43:51;;;;;;;0.30;0.20;;;;;;;10.60;100.00;99969.25;1723380;80;21471;-46
2022/09/10 07:46:19;;;;;;;0.20;0.20;;;;;;;10.63;100.00;99967.27;1723896;80;21109;-44
2022/09/10 07:48:54;;;;;;;0.30;0.30;;;;;;;10.63;100.00;99966.43;1725195;80;21096;-46
2022/09/10 07:51:22;;;;;;;0.30;0.20;;;;;;;10.66;100.00;99965.39;1724026;80;21760;-44
2022/09/10 07:53:53;;;;;;;0.35;0.20;;;;;;;10.64;100.00;99968.14;1734272;80;21086;-45
2022/09/10 07:56:22;;;;;;;0.20;0.20;;;;;;;10.61;100.00;99967.84;1727971;80;21105;-45
2022/09/10 07:58:49;;;;;;;0.30;0.30;;;;;;;10.59;100.00;99956.73;1730406;80;21120;-44
2022/09/10 08:01:15;;;;;;;0.20;0.20;;;;;;;10.59;100.00;99952.69;1668674;83;21080;-46
2022/09/10 08:03:42;;;;;;;0.20;0.20;;;;;;;10.59;100.00;99945.48;1727894;80;22184;-44
2022/09/10 08:06:10;;;;;;;0.78;0.25;;;;;;;10.61;100.00;99949.47;1663305;83;21084;-44
2022/09/10 08:08:38;;;;;;;0.23;0.20;;;;;;;10.61;100.00;99947.65;1671778;83;21669;-44
2022/09/10 08:11:15;;;;;;;0.40;0.40;;;;;;;10.61;100.00;99943.61;1704597;80;21098;-44
2022/09/10 08:13:47;;;;;;;0.40;0.40;;;;;;;10.63;100.00;99942.67;1724423;80;21053;-47
2022/09/10 08:16:17;;;;;;;0.30;0.30;;;;;;;10.59;100.00;99944.14;1721822;80;21889;-45
2022/09/10 08:18:46;;;;;;;0.65;0.30;;;;;;;10.58;100.00;99945.08;1727332;80;20895;-46
2022/09/10 08:21:13;;;;;;;1.30;0.33;;;;;;;10.57;100.00;99943.33;1666373;83;20910;-44
2022/09/10 08:23:40;;;;;;;0.45;0.35;;;;;;;10.55;100.00;99943.86;1730964;80;20966;-45
2022/09/10 08:26:07;;;;;;;0.30;0.30;;;;;;;10.54;100.00;99945.31;1729222;80;21588;-45
2022/09/10 08:28:35;;;;;;;0.40;0.40;;;;;;;10.55;100.00;99952.41;1728764;80;21161;-44
2022/09/10 08:31:08;;;;;;;0.30;0.30;;;;;;;10.56;100.00;99944.73;1707786;82;21384;-45
2022/09/10 08:33:38;;;;;;;0.50;0.47;;;;;;;10.59;100.00;99938.77;1728231;80;21105;-45
2022/09/10 08:36:07;;;;;;;0.47;0.47;;;;;;;10.60;100.00;99936.47;1728329;80;21034;-45
2022/09/10 08:38:36;;;;;;;0.57;0.45;;;;;;;10.60;100.00;99925.70;1734766;80;21025;-46
2022/09/10 08:41:38;;;;;;;0.53;0.50;;;;;;;10.62;100.00;99918.91;1736231;80;21139;-44
2022/09/10 08:44:16;;;;;;;0.60;0.60;;;;;;;10.61;100.00;99917.16;1731815;80;20914;-45
2022/09/10 08:50:19;;;;;;;0.90;0.60;;;;;;;10.74;100.00;99916.11;1872370;75;22413;-46
2022/09/10 08:52:56;;;;;;;0.82;0.68;;;;;;;10.72;100.00;99917.52;1826462;77;21029;-44
2022/09/10 08:55:30;;;;;;;0.88;0.88;;;;;;;10.74;100.00;99916.11;1831933;77;21415;-46
2022/09/10 08:58:19;;;;;;;0.85;0.80;;;;;;;10.72;100.00;99916.17;1811137;76;20929;-45
2022/09/10 09:00:52;;;;;;;1.98;0.85;;;;;;;10.69;100.00;99920.38;1789767;76;20958;-46
2022/09/10 09:03:44;;;;;;;4.20;0.80;;;;;;;10.64;100.00;99914.31;1795493;76;20970;-44
2022/09/10 09:06:30;;;;;;;0.80;0.80;;;;;;;10.61;100.00;99912.66;1791827;76;21099;-44
2022/09/10 09:08:59;;;;;;;0.57;0.57;;;;;;;10.62;100.00;99912.19;1793812;76;21154;-43
2022/09/10 09:12:00;;;;;;;0.70;0.70;;;;;;;10.61;100.00;99914.00;1809268;76;21001;-44
2022/09/10 09:14:50;;;;;;;0.80;0.80;;;;;;;10.62;100.00;99910.84;1793416;76;21013;-44
2022/09/10 09:17:47;;;;;;;0.85;0.80;;;;;;;10.63;100.00;99916.13;1762803;78;21133;-46
2022/09/10 09:20:35;;;;;;;1.30;0.90;;;;;;;10.66;100.00;99912.90;1748220;77;21001;-45
2022/09/10 09:23:25;;;;;;;0.80;0.80;;;;;;;10.67;100.00;99915.53;1788213;76;21381;-44
2022/09/10 09:26:10;;;;;;;0.80;0.80;;;;;;;10.69;100.00;99913.64;1747160;76;20994;-45
2022/09/10 09:28:58;;;;;;;1.40;1.00;;;;;;;10.71;100.00;99905.50;1795652;76;21049;-45
2022/09/10 09:31:29;;;;;;;3.47;1.05;;;;;;;10.71;100.00;99895.61;1761480;76;21133;-45
2022/09/10 09:34:06;;;;;;;1.62;1.10;;;;;;;10.74;100.00;99905.34;1792824;76;21487;-46
2022/09/10 09:36:37;;;;;;;0.85;0.80;;;;;;;10.75;100.00;99896.32;1792071;76;21095;-46
2022/09/10 09:39:20;;;;;;;1.27;0.90;;;;;;;10.77;100.00;99898.01;1796364;76;21065;-46
2022/09/10 09:42:08;;;;;;;2.02;0.90;;;;;;;10.78;100.00;99894.84;1767589;76;21009;-45
2022/09/10 09:44:47;;;;;;;1.70;1.15;;;;;;;10.78;100.00;99894.37;1787790;76;20993;-45
2022/09/10 09:47:13;;;;;;;0.80;0.80;;;;;;;10.76;100.00;99890.88;1795559;76;21112;-45
2022/09/10 09:49:42;;;;;;;1.07;0.90;;;;;;;10.75;100.00;99891.81;1793175;76;21110;-45
2022/09/10 09:52:17;;;;;;;0.85;0.85;;;;;;;10.76;100.00;99891.34;1788658;76;21064;-45
2022/09/10 09:54:48;;;;;;;0.60;0.60;;;;;;;10.74;100.00;99893.22;1799944;76;21515;-46
2022/09/10 09:57:18;;;;;;;1.45;0.70;;;;;;;10.72;100.00;99880.33;1788867;76;21396;-46
2022/09/10 09:59:46;;;;;;;0.70;0.70;;;;;;;10.71;100.00;99880.80;1794674;76;21215;-46
2022/09/10 10:02:21;;;;;;;1.20;1.05;;;;;;;10.72;100.00;99877.14;1801441;76;21393;-46
2022/09/10 10:05:08;;;;;;;1.47;0.70;;;;;;;10.72;100.00;99871.75;1789736;76;21034;-46
2022/09/10 10:07:36;;;;;;;0.70;0.70;;;;;;;10.74;100.00;99873.03;1763236;76;20994;-45
2022/09/10 10:10:06;;;;;;;1.65;0.72;;;;;;;10.77;100.00;99865.70;1795008;76;21073;-46
2022/09/10 10:12:32;;;;;;;0.78;0.70;;;;;;;10.79;100.00;99865.63;1790999;76;21068;-47
2022/09/10 10:14:59;;;;;;;1.00;0.70;;;;;;;10.84;100.00;99863.58;1732331;80;21200;-46
2022/09/10 10:17:39;;;;;;;0.70;0.70;;;;;;;10.88;100.00;99853.08;1751550;79;21099;-45
2022/09/10 10:20:12;;;;;;;1.17;0.78;;;;;;;10.91;100.00;99849.75;1746337;79;21093;-45
2022/09/10 10:22:41;;;;;;;0.70;0.70;;;;;;;10.91;100.00;99850.22;1744931;79;21398;-45
2022/09/10 10:25:40;;;;;;;0.82;0.80;;;;;;;10.90;100.00;99850.69;1757570;79;21404;-45
2022/09/10 10:28:16;;;;;;;0.80;0.70;;;;;;;10.93;100.00;99852.38;1750583;79;21096;-45
2022/09/10 10:30:43;;;;;;;1.67;0.80;;;;;;;10.97;100.00;99853.98;1746571;79;21095;-45
2022/09/10 10:33:14;;;;;;;0.70;0.70;;;;;;;10.99;100.00;99852.94;1753466;79;21061;-46
2022/09/10 10:36:05;;;;;;;0.70;0.60;;;;;;;11.00;100.00;99844.39;1747556;79;21063;-45
2022/09/10 10:38:57;;;;;;;0.80;0.70;;;;;;;11.00;100.00;99843.05;1761126;79;21122;-45
2022/09/10 10:41:29;;;;;;;0.60;0.60;;;;;;;10.99;100.00;99834.09;1747533;79;21148;-45
2022/09/10 10:44:31;;;;;;;0.60;0.60;;;;;;;11.04;100.00;99831.19;1744218;79;21047;-45
2022/09/10 10:47:27;;;;;;;0.65;0.62;;;;;;;11.07;100.00;99825.63;1746347;79;22159;-45
2022/09/10 10:50:17;;;;;;;1.05;0.80;;;;;;;11.10;100.00;99829.53;1738750;79;21080;-45
2022/09/10 10:53:10;;;;;;;0.80;0.80;;;;;;;11.12;100.00;99833.03;1748174;79;21048;-45
2022/09/10 10:55:44;;;;;;;0.80;0.70;;;;;;;11.11;100.00;99829.94;1747357;79;21922;-45
2022/09/10 10:58:33;;;;;;;0.78;0.78;;;;;;;11.06;100.00;99826.58;1743606;79;21120;-45
2022/09/10 11:01:20;;;;;;;0.80;0.70;;;;;;;11.03;100.00;99820.02;1710890;81;21125;-45
2022/09/10 11:04:00;;;;;;;0.78;0.70;;;;;;;11.02;100.00;99816.91;1746725;79;21110;-44
2022/09/10 11:06:32;;;;;;;0.98;0.90;;;;;;;11.03;100.00;99811.93;1750566;79;21611;-45
2022/09/10 11:09:03;;;;;;;1.47;0.90;;;;;;;11.06;100.00;99802.84;1743395;79;21133;-45
2022/09/10 11:11:54;;;;;;;0.80;0.80;;;;;;;11.09;100.00;99805.36;1743994;79;21040;-45
2022/09/10 11:14:54;;;;;;;1.20;1.10;;;;;;;11.10;100.00;99807.98;1743054;79;21104;-46
2022/09/10 11:17:41;;;;;;;2.20;1.20;;;;;;;11.14;100.00;99808.24;1748134;79;21141;-44
2022/09/10 11:20:29;;;;;;;1.20;1.10;;;;;;;11.18;100.00;99812.52;1742151;79;21075;-45
2022/09/10 11:23:23;;;;;;;1.20;1.10;;;;;;;11.20;100.00;99794.45;1747648;79;21720;-46
2022/09/10 11:26:03;;;;;;;1.65;1.45;;;;;;;11.22;100.00;99795.73;1742802;79;20894;-45
2022/09/10 11:28:34;;;;;;;1.52;1.42;;;;;;;11.22;100.00;99789.88;1746955;79;20973;-45
2022/09/10 11:31:11;;;;;;;1.95;1.15;;;;;;;11.21;100.00;99779.17;1744418;79;20895;-45
2022/09/10 11:34:04;;;;;;;2.52;1.30;;;;;;;11.20;100.00;99789.06;1742792;79;21514;-45
2022/09/10 11:36:35;;;;;;;1.40;1.30;;;;;;;11.20;100.00;99778.30;1742971;79;21143;-44
2022/09/10 11:39:30;;;;;;;1.30;1.20;;;;;;;11.22;100.00;99779.57;1740195;79;20969;-45
2022/09/10 11:41:56;;;;;;;1.67;1.57;;;;;;;11.23;100.00;99776.77;1747989;79;20922;-45
2022/09/10 11:44:55;;;;;;;2.00;1.90;;;;;;;11.24;100.00;99789.30;1745000;79;20949;-48
2022/09/10 11:47:31;;;;;;;1.45;1.35;;;;;;;11.24;100.00;99785.25;1744530;80;21022;-45
2022/09/10 11:50:09;;;;;;;1.37;1.27;;;;;;;11.25;100.00;99789.70;1713160;80;21105;-45